FW3330 Summerville SC US current weather conditions

sailwx.info

Wind from 193 at 4 knots gusting 9

Air temperature 20.6° C
Dewpoint 17.4° C

Last reported at 2019-Dec-09 22:03 UTC.
Time now 2019-Dec-09 23:06 UTC

Location: N 33°03' W 080°14'.
View on Google Maps.

See reports from other nearby stations

  
Tides and Currents Weather Stations Pressure Air Temp Water Temp Dewpoint Dewpoint Depression Visibility Wind Speed Wind Dir Waves Ship Positions
date/time (UTC)wind fromknots sea level pressurealtimeterstation pressurevisibilityair tempwater tempwave heightnotes
2019-Dec-09 22:03 193 4 gusting 9 20.6
2019-Dec-09 21:53 206 2 gusting 6 20.6
2019-Dec-09 21:43 222 3 gusting 6 21.1
2019-Dec-09 21:33 189 2 gusting 8 21.1
2019-Dec-09 21:23 160 4 gusting 8 21.1
2019-Dec-09 21:13 177 3 gusting 11 21.7
2019-Dec-09 21:03 163 4 gusting 8 21.7
2019-Dec-09 20:53 140 2 gusting 9 21.7
2019-Dec-09 20:43 219 1 gusting 6 21.7
2019-Dec-09 20:33 203 5 gusting 11 22.2
2019-Dec-09 20:23 189 0 gusting 7 22.2
2019-Dec-09 20:13 199 4 gusting 10 22.8
2019-Dec-09 20:03 189 1 gusting 8 22.8
2019-Dec-09 19:53 210 2 gusting 10 22.8
2019-Dec-09 19:43 192 2 gusting 10 22.8
2019-Dec-09 19:33 160 1 gusting 7 22.2
2019-Dec-09 19:23 195 0 gusting 6 22.2
2019-Dec-09 19:13 214 3 gusting 7 22.2
2019-Dec-09 19:03 231 3 gusting 9 22.2
2019-Dec-09 18:53 108 1 gusting 7 22.2
2019-Dec-09 18:43 206 4 gusting 8 21.7
2019-Dec-09 18:33 243 2 gusting 6 21.7
2019-Dec-09 18:23 218 1 gusting 6 21.1
2019-Dec-09 18:13 209 1 gusting 6 21.1
2019-Dec-09 18:03 226 0 gusting 5 20.6
2019-Dec-09 17:53 165 0 gusting 6 20.6
2019-Dec-09 17:43 169 1 gusting 4 20.0
2019-Dec-09 17:34 140 0 gusting 6 19.4
2019-Dec-09 17:23 170 2 gusting 6 18.9
2019-Dec-09 17:13 147 2 gusting 4 18.3
2019-Dec-09 17:03 095 2 gusting 6 17.8
2019-Dec-09 16:53 206 1 gusting 5 17.8
2019-Dec-09 16:43 204 17.2
2019-Dec-09 16:33 208 1 gusting 4 16.7
2019-Dec-09 16:23 156 2 gusting 4 16.1
2019-Dec-09 16:13 095 0 gusting 6 15.6
2019-Dec-09 16:03 112 2 gusting 6 15.0
2019-Dec-09 15:53 122 1 gusting 4 14.4
2019-Dec-09 15:43 151 0 gusting 4 13.9
2019-Dec-09 15:33 124 0 gusting 3 13.3
2019-Dec-09 15:23 134 0 gusting 3 12.8
2019-Dec-09 15:13 132 1 gusting 4 12.2
2019-Dec-09 15:03 171 0 gusting 3 12.2
2019-Dec-09 14:53 134 1 gusting 6 11.7
2019-Dec-09 14:43 135 1 gusting 6 11.1
2019-Dec-09 14:33 146 1 gusting 4 11.1
2019-Dec-09 14:23 130 1 gusting 4 10.6
2019-Dec-09 14:13 095 0 gusting 3 10.6
2019-Dec-09 14:03 054 0 gusting 1 10.6
2019-Dec-09 13:53 060 10.0
2019-Dec-09 13:43 060 10.0
2019-Dec-09 13:33 025 10.0
2019-Dec-09 13:23 128 10.0
2019-Dec-09 13:13 125 10.0
2019-Dec-09 13:03 090 1 gusting 3 10.0
2019-Dec-09 12:53 120 10.0
2019-Dec-09 12:43 120 10.0
2019-Dec-09 12:33 120 10.0
2019-Dec-09 12:23 120 10.0
2019-Dec-09 12:13 120 10.0
2019-Dec-09 12:03 120 10.0
2019-Dec-09 11:53 120 10.0
2019-Dec-09 11:43 104 1 gusting 2 10.0
2019-Dec-08 23:13 031 11.7
2019-Dec-08 23:03 043 11.7
2019-Dec-08 22:53 043 12.2
2019-Dec-08 22:43 029 12.2
2019-Dec-08 22:33 354 12.8
2019-Dec-08 22:23 037 13.3
2019-Dec-08 22:13 331 13.9
2019-Dec-08 22:03 048 13.9
2019-Dec-08 21:53 048 14.4
2019-Dec-08 21:43 010 14.4
2019-Dec-08 21:33 017 1 gusting 5 14.4
2019-Dec-08 21:23 061 0 gusting 4 15.0
2019-Dec-08 21:13 039 0 gusting 3 15.0
2019-Dec-08 21:03 359 0 gusting 5 15.0
2019-Dec-08 20:53 059 2 gusting 6 15.0
2019-Dec-08 20:43 081 1 gusting 6 15.6
2019-Dec-08 20:33 023 2 gusting 8 15.6
2019-Dec-08 20:23 045 0 gusting 6 15.6
2019-Dec-08 20:13 098 0 gusting 6 15.6
2019-Dec-08 20:03 050 1 gusting 7 15.6
2019-Dec-08 19:53 088 2 gusting 6 15.6
2019-Dec-08 19:43 081 1 gusting 10 15.0
2019-Dec-08 19:33 083 3 gusting 12 15.0
2019-Dec-08 19:13 354 3 gusting 10 15.0
2019-Dec-08 19:03 021 3 gusting 8 15.6
2019-Dec-08 18:53 331 3 gusting 10 15.0
2019-Dec-08 18:43 354 1 gusting 5 15.0
2019-Dec-08 18:33 043 1 gusting 7 14.4
2019-Dec-08 18:23 347 1 gusting 6 14.4
2019-Dec-08 18:13 061 2 gusting 7 13.9
2019-Dec-08 18:03 027 1 gusting 6 13.9
2019-Dec-08 17:53 330 0 gusting 6 13.9
2019-Dec-08 17:43 015 2 gusting 6 13.3
2019-Dec-08 17:33 069 13.3
2019-Dec-08 17:23 045 2 gusting 10 12.8
2019-Dec-08 17:13 326 2 gusting 7 12.8
2019-Dec-08 17:03 342 2 gusting 8 12.8
2019-Dec-08 16:53 036 1 gusting 8 12.2
2019-Dec-08 16:43 311 2 gusting 7 12.2
2019-Dec-08 16:33 111 0 gusting 6 12.2
2019-Dec-08 16:23 349 1 gusting 6 12.2
2019-Dec-08 16:13 045 2 gusting 6 12.2
2019-Dec-08 16:03 043 2 gusting 7 11.7
2019-Dec-08 15:53 089 2 gusting 6 11.7
2019-Dec-08 15:43 004 0 gusting 6 11.1
2019-Dec-08 15:33 064 2 gusting 8 10.6
2019-Dec-08 15:23 359 2 gusting 7 10.0
2019-Dec-08 15:13 027 0 gusting 5 9.4
2019-Dec-08 15:03 114 1 gusting 6 9.4
2019-Dec-08 14:53 354 1 gusting 7 9.4
2019-Dec-08 14:43 062 0 gusting 6 9.4
2019-Dec-08 14:33 055 1 gusting 6 8.9
2019-Dec-08 14:23 323 2 gusting 6 8.3
2019-Dec-08 14:13 025 1 gusting 5 8.3
2019-Dec-08 14:03 297 1 gusting 6 7.8
2019-Dec-08 13:53 041 0 gusting 5 7.2
2019-Dec-08 13:43 031 1 gusting 6 6.1
2019-Dec-08 13:33 029 3 gusting 8 5.6
2019-Dec-08 13:23 009 1 gusting 5 5.0
2019-Dec-08 13:13 040 1 gusting 8 4.4
2019-Dec-08 13:03 343 0 gusting 4 4.4
2019-Dec-08 12:53 036 1 gusting 4 3.9
2019-Dec-08 12:43 039 0 gusting 3 3.9
2019-Dec-08 12:33 068 0 gusting 4 3.9
2019-Dec-08 12:23 043 0 gusting 5 3.9
2019-Dec-08 12:13 052 0 gusting 3 3.9
2019-Dec-08 12:03 081 0 gusting 4 3.9
2019-Dec-08 11:53 044 4.4
2019-Dec-08 11:43 056 4.4
2019-Dec-08 11:33 054 4.4
2019-Dec-08 11:23 066 0 gusting 6 4.4